Flight Track Log - Related Links

Times and Time Zones

All times are in EDT time to prevent confusion due to time zone crossing. See the RPA5403 flight status page for this flight to view local times or setup timezone preferences in your user account.

Time Position Orientation Groundspeed Altitude Reporting Facility
EDT Latitude Longitude Course Direction KTS MPH feet Rate Location/Type
Fri 09:57:24 AM 43.6667 -79.5833 47° Northeast 80 92 600  Level Toronto Center
Fri 09:58:24 AM 43.7000 -79.5333 47° Northeast 150 173 2,300 1,600 Climbing Toronto Center
Fri 09:59:24 AM 43.7333 -79.5000 36° Northeast 220 253 3,800 2,200 Climbing Toronto Center
Fri 10:00:24 AM 43.7333 -79.4000 90° East 250 288 6,700 2,700 Climbing Toronto Center
Fri 10:01:24 AM 43.6833 -79.3333 136° Southeast 250 288 9,200 2,550 Climbing Toronto Center
Fri 10:02:24 AM 43.6167 -79.3333 180° South 250 288 11,800 2,500 Climbing Toronto Center
Fri 10:03:24 AM 43.5500 -79.4000 216° Southwest 270 311 14,200 1,600 Climbing Toronto Center
Fri 10:04:24 AM 43.5000 -79.4500 216° Southwest 270 311 15,000 500 Climbing Toronto Center
Fri 10:05:24 AM 43.4500 -79.5333 230° Southwest 270 311 15,200 1,000 Climbing Toronto Center
Fri 10:06:24 AM 43.3833 -79.6167 222° Southwest 280 322 17,000 1,200 Climbing Toronto Center
Fri 10:07:24 AM 43.3167 -79.6500 200° South 300 345 17,600 700 Climbing Toronto Center
Fri 10:08:24 AM 43.2167 -79.6167 166° South 360 414 18,400 1,050 Climbing Toronto Center
Fri 10:09:24 AM 43.1167 -79.5667 160° South 380 437 19,700 1,350 Climbing Toronto Center
Fri 10:10:24 AM 43.0167 -79.5167 160° South 390 449 21,100 1,350 Climbing Toronto Center
Fri 10:11:24 AM 42.9000 -79.4500 157° South 400 460 22,400 1,277 Climbing Toronto Center
Fri 10:11:58 AM 42.8672 -79.4500 180° South 391 450 23,100 1,213 Climbing Cleveland Center
Fri 10:12:58 AM 42.7606 -79.3956 159° South 404 465 24,300 1,200 Climbing Cleveland Center
Fri 10:13:58 AM 42.6494 -79.3439 161° South 412 474 25,500 1,000 Climbing Cleveland Center
Fri 10:14:58 AM 42.5322 -79.2900 161° South 424 488 26,300 750 Climbing Cleveland Center
Fri 10:15:58 AM 42.4128 -79.2278 159° South 433 498 27,000 350 Climbing Cleveland Center
Fri 10:16:58 AM 42.3100 -79.1822 162° South 413 475 27,000  Level Cleveland Center
Fri 10:17:58 AM 42.2050 -79.1311 160° South 405 466 27,000  Level Cleveland Center
Fri 10:18:58 AM 42.1103 -79.0550 149° Southeast 398 458 27,000  Level Cleveland Center
Fri 10:19:58 AM 42.0175 -78.9678 145° Southeast 397 457 27,000  Level Cleveland Center
Fri 10:20:58 AM 41.9225 -78.8836 147° Southeast 409 471 27,000  Level Cleveland Center
Fri 10:21:58 AM 41.8294 -78.7997 146° Southeast 409 471 27,000  Level Cleveland Center
Fri 10:22:58 AM 41.7342 -78.7161 147° Southeast 409 471 27,000  Level Cleveland Center
Fri 10:23:58 AM 41.6433 -78.6325 145° Southeast 409 471 27,000  Level Cleveland Center
Fri 10:24:58 AM 41.5481 -78.5494 147° Southeast 409 471 27,000  Level Cleveland Center
Fri 10:25:58 AM 41.4547 -78.4664 146° Southeast 404 465 27,000  Level Cleveland Center
Fri 10:26:58 AM 41.3636 -78.3836 146° Southeast 404 465 27,000  Level Cleveland Center
Fri 10:27:54 AM 41.2839 -78.3144 147° Southeast 410 472 27,000  Level New York Center
Fri 10:28:54 AM 41.1911 -78.2325 146° Southeast 410 472 27,000 -446 Level New York Center
Fri 10:29:55 AM 41.0983 -78.1506 146° Southeast 410 472 26,100 -992 Descending New York Center
Fri 10:30:55 AM 41.0111 -78.0753 147° Southeast 399 459 25,000 -550 Descending New York Center
Fri 10:31:55 AM 40.9222 -77.9969 146° Southeast 386 444 25,000  Level New York Center
Fri 10:32:54 AM 40.8492 -77.8958 134° Southeast 386 444 25,000 -504 Level New York Center
Fri 10:33:54 AM 40.7806 -77.7872 130° Southeast 386 444 24,000 -992 Descending New York Center
Fri 10:34:55 AM 40.7136 -77.6847 131° Southeast 376 433 23,000 -496 Descending New York Center
Fri 10:35:55 AM 40.6444 -77.5819 132° Southeast 376 433 23,000  Level New York Center
Fri 10:36:53 AM 40.5886 -77.4669 123° Southeast 371 427 23,000  Level New York Center
Fri 10:37:54 AM 40.5325 -77.3494 122° Southeast 376 433 23,000  Level New York Center
Fri 10:38:55 AM 40.4667 -77.2206 124° Southeast 382 440 23,000 -353 Level New York Center
Fri 10:39:53 AM 40.4106 -77.1006 122° Southeast 382 440 22,300 -966 Descending New York Center
Fri 10:40:53 AM 40.3542 -76.9864 123° Southeast 387 445 21,100 -639 Descending New York Center
Fri 10:41:55 AM 40.2997 -76.8728 122° Southeast 387 445 21,000 -50 Descending New York Center
Fri 10:42:53 AM 40.2453 -76.7564 121° Southeast 387 445 21,000  Level New York Center
Fri 10:43:55 AM 40.1881 -76.6456 124° Southeast 387 445 21,000  Level New York Center
Fri 10:44:53 AM 40.1392 -76.5381 121° Southeast 387 445 21,000 -216 Level New York Center
Fri 10:47:09 AM 40.0136 -76.2822 123° Southeast 383 441 20,300 -612 Descending Washington Center
Fri 10:48:09 AM 39.9603 -76.1708 122° Southeast 372 428 19,000 -645 Descending Washington Center
Fri 10:49:10 AM 39.9064 -76.0619 123° Southeast 367 422 19,000 -344 Level Washington Center
Fri 10:50:11 AM 39.8506 -75.9536 124° Southeast 362 417 18,300 -958 Descending Washington Center
Fri 10:51:09 AM 39.7989 -75.8453 122° Southeast 357 411 17,100 -1,210 Descending Washington Center
Fri 10:52:10 AM 39.7469 -75.7428 123° Southeast 351 404 15,900 -1,140 Descending Washington Center
Fri 10:53:10 AM 39.6969 -75.6428 123° Southeast 346 398 14,800 -942 Descending Washington Center
Fri 10:54:11 AM 39.6303 -75.5728 141° Southeast 323 372 14,000 -403 Descending Washington Center
Fri 10:55:09 AM 39.5781 -75.4947 131° Southeast 301 346 14,000  Level Washington Center
Fri 10:56:10 AM 39.5364 -75.4139 124° Southeast 282 325 14,000  Level Washington Center
Fri 10:57:11 AM 39.4986 -75.3306 120° Southeast 272 313 14,000 -151 Level Washington Center
Fri 10:58:09 AM 39.4442 -75.2583 134° Southeast 267 307 13,700 -712 Descending Washington Center
Fri 10:59:09 AM 39.3942 -75.1914 134° Southeast 267 307 12,600 -1,041 Descending Washington Center
Fri 11:00:10 AM 39.3397 -75.1219 135° Southeast 267 307 11,600 -1,525 Descending Washington Center
Fri 11:01:11 AM 39.2914 -75.0500 131° Southeast 272 313 9,500 -2,067 Descending Washington Center
Fri 11:02:09 AM 39.3139 -74.9611 72° East 228 262 7,500 -1,916 Descending Washington Center
Fri 11:03:10 AM 39.3636 -74.9044 41° Northeast 204 235 5,700 -1,820 Descending Washington Center
Fri 11:04:11 AM 39.4133 -74.8503 40° Northeast 204 235 3,800 -2,039 Descending Washington Center
Fri 11:04:53 AM 39.4419 -74.7933 57° Northeast 231 266 2,200 -1,800 Descending Washington Center
Fri 11:05:11 AM 39.4481 -74.7719 70° East 220 253 2,000 -632 Descending Washington Center
Fri 11:06:09 AM 39.4725 -74.6989 67° East 220 253 1,400 -508 Descending Washington Center
Fri 11:07:09 AM 39.4950 -74.6314 67° East 210 242 1,000 -400 Descending Washington Center

Login

Don't have an account? Register now (free) for customized features, flight alerts, and more!